sensor_id;sensor_type;location;lat;lon;timestamp;pressure;altitude;pressure_sealevel;temperature;humidity
34205;BME280;20471;49.680;20.074;2023-05-12T00:01:51;97334.15;;;6.89;60.17
34205;BME280;20471;49.680;20.074;2023-05-12T00:04:19;97333.20;;;6.89;60.20
34205;BME280;20471;49.680;20.074;2023-05-12T00:06:47;97334.19;;;6.87;60.23
34205;BME280;20471;49.680;20.074;2023-05-12T00:09:15;97332.71;;;6.84;60.33
34205;BME280;20471;49.680;20.074;2023-05-12T00:11:43;97331.84;;;6.81;60.35
34205;BME280;20471;49.680;20.074;2023-05-12T00:14:14;97333.36;;;6.77;60.53
34205;BME280;20471;49.680;20.074;2023-05-12T00:16:42;97330.61;;;6.74;60.61
34205;BME280;20471;49.680;20.074;2023-05-12T00:19:10;97334.23;;;6.71;60.77
34205;BME280;20471;49.680;20.074;2023-05-12T00:21:38;97335.21;;;6.66;60.76
34205;BME280;20471;49.680;20.074;2023-05-12T00:24:08;97336.05;;;6.60;60.82
34205;BME280;20471;49.680;20.074;2023-05-12T00:26:36;97338.39;;;6.56;60.96
34205;BME280;20471;49.680;20.074;2023-05-12T00:29:04;97336.88;;;6.49;60.96
34205;BME280;20471;49.680;20.074;2023-05-12T00:31:32;97337.74;;;6.44;61.16
34205;BME280;20471;49.680;20.074;2023-05-12T00:34:00;97336.89;;;6.38;61.25
34205;BME280;20471;49.680;20.074;2023-05-12T00:36:29;97338.43;;;6.32;61.39
34205;BME280;20471;49.680;20.074;2023-05-12T00:38:57;97338.23;;;6.28;61.53
34205;BME280;20471;49.680;20.074;2023-05-12T00:41:25;97338.10;;;6.24;61.57
34205;BME280;20471;49.680;20.074;2023-05-12T00:43:53;97337.61;;;6.19;61.64
34205;BME280;20471;49.680;20.074;2023-05-12T00:46:22;97337.13;;;6.15;61.81
34205;BME280;20471;49.680;20.074;2023-05-12T00:48:50;97335.33;;;6.12;61.93
34205;BME280;20471;49.680;20.074;2023-05-12T00:51:19;97337.68;;;6.11;62.05
34205;BME280;20471;49.680;20.074;2023-05-12T00:53:48;97337.60;;;6.08;62.14
34205;BME280;20471;49.680;20.074;2023-05-12T00:56:18;97339.39;;;6.04;62.33
34205;BME280;20471;49.680;20.074;2023-05-12T00:58:46;97343.27;;;5.99;62.38
34205;BME280;20471;49.680;20.074;2023-05-12T01:01:14;97346.04;;;5.96;62.52
34205;BME280;20471;49.680;20.074;2023-05-12T01:03:43;97347.33;;;5.94;62.48
34205;BME280;20471;49.680;20.074;2023-05-12T01:06:18;97347.73;;;5.91;62.51
34205;BME280;20471;49.680;20.074;2023-05-12T01:08:49;97353.02;;;5.86;62.65
34205;BME280;20471;49.680;20.074;2023-05-12T01:11:17;97350.26;;;5.83;62.69
34205;BME280;20471;49.680;20.074;2023-05-12T01:13:46;97355.58;;;5.85;62.80
34205;BME280;20471;49.680;20.074;2023-05-12T01:16:15;97357.47;;;5.83;62.98
34205;BME280;20471;49.680;20.074;2023-05-12T01:18:45;97358.39;;;5.75;63.08
34205;BME280;20471;49.680;20.074;2023-05-12T01:21:16;97356.14;;;5.71;63.15
34205;BME280;20471;49.680;20.074;2023-05-12T01:23:55;97358.33;;;5.68;63.23
34205;BME280;20471;49.680;20.074;2023-05-12T01:26:25;97357.55;;;5.60;63.33
34205;BME280;20471;49.680;20.074;2023-05-12T01:28:56;97362.77;;;5.54;63.46
34205;BME280;20471;49.680;20.074;2023-05-12T01:31:24;97360.05;;;5.52;63.58
34205;BME280;20471;49.680;20.074;2023-05-12T01:33:53;97360.22;;;5.51;63.62
34205;BME280;20471;49.680;20.074;2023-05-12T01:36:21;97362.27;;;5.49;63.54
34205;BME280;20471;49.680;20.074;2023-05-12T01:38:49;97358.06;;;5.43;63.56
34205;BME280;20471;49.680;20.074;2023-05-12T01:41:17;97359.95;;;5.39;63.61
34205;BME280;20471;49.680;20.074;2023-05-12T01:43:45;97357.88;;;5.34;63.75
34205;BME280;20471;49.680;20.074;2023-05-12T01:46:13;97356.31;;;5.29;63.98
34205;BME280;20471;49.680;20.074;2023-05-12T01:48:41;97355.82;;;5.29;64.11
34205;BME280;20471;49.680;20.074;2023-05-12T01:51:09;97358.04;;;5.27;64.12
34205;BME280;20471;49.680;20.074;2023-05-12T01:53:37;97354.82;;;5.22;64.14
34205;BME280;20471;49.680;20.074;2023-05-12T01:56:06;97354.89;;;5.19;64.19
34205;BME280;20471;49.680;20.074;2023-05-12T01:58:34;97353.19;;;5.14;64.18
34205;BME280;20471;49.680;20.074;2023-05-12T02:01:02;97353.98;;;5.08;64.15
34205;BME280;20471;49.680;20.074;2023-05-12T02:03:30;97350.55;;;5.04;64.32
34205;BME280;20471;49.680;20.074;2023-05-12T02:05:58;97350.49;;;4.97;64.37
34205;BME280;20471;49.680;20.074;2023-05-12T02:08:26;97350.17;;;4.89;64.46
34205;BME280;20471;49.680;20.074;2023-05-12T02:11:20;97349.48;;;4.87;64.75
34205;BME280;20471;49.680;20.074;2023-05-12T02:13:48;97344.27;;;4.84;64.91
34205;BME280;20471;49.680;20.074;2023-05-12T02:16:16;97341.52;;;4.79;64.92
34205;BME280;20471;49.680;20.074;2023-05-12T02:18:44;97339.99;;;4.75;64.96
34205;BME280;20471;49.680;20.074;2023-05-12T02:21:13;97336.50;;;4.70;65.10
34205;BME280;20471;49.680;20.074;2023-05-12T02:23:41;97336.92;;;4.66;65.26
34205;BME280;20471;49.680;20.074;2023-05-12T02:26:09;97336.55;;;4.65;65.42
34205;BME280;20471;49.680;20.074;2023-05-12T02:28:38;97334.29;;;4.61;65.48
34205;BME280;20471;49.680;20.074;2023-05-12T02:31:06;97336.85;;;4.59;65.52
34205;BME280;20471;49.680;20.074;2023-05-12T02:33:34;97336.95;;;4.58;65.67
34205;BME280;20471;49.680;20.074;2023-05-12T02:36:02;97341.90;;;4.54;65.61
34205;BME280;20471;49.680;20.074;2023-05-12T02:38:30;97343.06;;;4.47;65.60
34205;BME280;20471;49.680;20.074;2023-05-12T02:40:58;97340.28;;;4.43;65.77
34205;BME280;20471;49.680;20.074;2023-05-12T02:43:27;97338.77;;;4.38;65.89
34205;BME280;20471;49.680;20.074;2023-05-12T02:45:55;97341.66;;;4.33;66.10
34205;BME280;20471;49.680;20.074;2023-05-12T02:48:23;97342.27;;;4.29;66.16
34205;BME280;20471;49.680;20.074;2023-05-12T02:50:51;97344.18;;;4.28;66.23
34205;BME280;20471;49.680;20.074;2023-05-12T02:53:19;97344.39;;;4.26;66.34
34205;BME280;20471;49.680;20.074;2023-05-12T02:55:47;97342.12;;;4.26;66.41
34205;BME280;20471;49.680;20.074;2023-05-12T02:58:16;97344.69;;;4.26;66.50
34205;BME280;20471;49.680;20.074;2023-05-12T03:00:44;97342.31;;;4.27;66.40
34205;BME280;20471;49.680;20.074;2023-05-12T03:03:12;97345.27;;;4.25;66.45
34205;BME280;20471;49.680;20.074;2023-05-12T03:05:40;97343.55;;;4.19;66.52
34205;BME280;20471;49.680;20.074;2023-05-12T03:08:08;97342.09;;;4.15;66.56
34205;BME280;20471;49.680;20.074;2023-05-12T03:10:36;97343.06;;;4.13;66.63
34205;BME280;20471;49.680;20.074;2023-05-12T03:13:05;97341.58;;;4.10;66.75
34205;BME280;20471;49.680;20.074;2023-05-12T03:15:33;97337.92;;;4.06;66.78
34205;BME280;20471;49.680;20.074;2023-05-12T03:18:02;97337.09;;;4.04;66.82
34205;BME280;20471;49.680;20.074;2023-05-12T03:20:30;97340.90;;;4.02;66.86
34205;BME280;20471;49.680;20.074;2023-05-12T03:22:58;97337.10;;;3.99;66.97
34205;BME280;20471;49.680;20.074;2023-05-12T03:25:26;97339.50;;;3.97;67.11
34205;BME280;20471;49.680;20.074;2023-05-12T03:27:54;97338.16;;;3.94;67.20
34205;BME280;20471;49.680;20.074;2023-05-12T03:30:22;97340.27;;;3.93;67.37
34205;BME280;20471;49.680;20.074;2023-05-12T03:32:51;97341.17;;;3.91;67.41
34205;BME280;20471;49.680;20.074;2023-05-12T03:35:19;97341.84;;;3.92;67.47
34205;BME280;20471;49.680;20.074;2023-05-12T03:37:47;97342.81;;;3.91;67.55
34205;BME280;20471;49.680;20.074;2023-05-12T03:40:15;97346.17;;;3.91;67.72
34205;BME280;20471;49.680;20.074;2023-05-12T03:42:44;97346.95;;;3.92;67.78
34205;BME280;20471;49.680;20.074;2023-05-12T03:45:12;97346.45;;;3.92;67.85
34205;BME280;20471;49.680;20.074;2023-05-12T03:47:40;97346.52;;;3.90;67.91
34205;BME280;20471;49.680;20.074;2023-05-12T03:50:08;97349.75;;;3.91;68.04
34205;BME280;20471;49.680;20.074;2023-05-12T03:52:37;97349.45;;;3.94;68.07
34205;BME280;20471;49.680;20.074;2023-05-12T03:55:07;97348.09;;;3.96;68.19
34205;BME280;20471;49.680;20.074;2023-05-12T03:57:35;97347.75;;;4.00;68.19
34205;BME280;20471;49.680;20.074;2023-05-12T04:00:04;97347.14;;;4.04;68.31
34205;BME280;20471;49.680;20.074;2023-05-12T04:02:32;97347.94;;;4.09;68.33
34205;BME280;20471;49.680;20.074;2023-05-12T04:05:00;97347.02;;;4.14;68.28
34205;BME280;20471;49.680;20.074;2023-05-12T04:07:28;97352.14;;;4.18;68.42
34205;BME280;20471;49.680;20.074;2023-05-12T04:09:57;97348.65;;;4.22;68.50
34205;BME280;20471;49.680;20.074;2023-05-12T04:12:25;97349.33;;;4.25;68.66
34205;BME280;20471;49.680;20.074;2023-05-12T04:14:53;97351.20;;;4.31;68.75
34205;BME280;20471;49.680;20.074;2023-05-12T04:17:21;97348.59;;;4.36;68.81
34205;BME280;20471;49.680;20.074;2023-05-12T04:19:49;97349.17;;;4.42;68.75
34205;BME280;20471;49.680;20.074;2023-05-12T04:22:18;97345.98;;;4.51;68.74
34205;BME280;20471;49.680;20.074;2023-05-12T04:24:46;97347.90;;;4.59;68.80
34205;BME280;20471;49.680;20.074;2023-05-12T04:27:14;97347.57;;;4.66;68.81
34205;BME280;20471;49.680;20.074;2023-05-12T04:29:42;97350.58;;;4.73;68.93
34205;BME280;20471;49.680;20.074;2023-05-12T04:32:10;97351.89;;;4.79;68.79
34205;BME280;20471;49.680;20.074;2023-05-12T04:34:38;97348.66;;;4.85;68.87
34205;BME280;20471;49.680;20.074;2023-05-12T04:37:07;97349.73;;;4.91;68.98
34205;BME280;20471;49.680;20.074;2023-05-12T04:39:35;97348.78;;;4.98;69.06
34205;BME280;20471;49.680;20.074;2023-05-12T04:42:03;97349.44;;;5.04;69.04
34205;BME280;20471;49.680;20.074;2023-05-12T04:44:31;97351.48;;;5.11;69.11
34205;BME280;20471;49.680;20.074;2023-05-12T04:46:59;97351.14;;;5.19;69.12
34205;BME280;20471;49.680;20.074;2023-05-12T04:49:27;97348.87;;;5.27;69.18
34205;BME280;20471;49.680;20.074;2023-05-12T04:51:55;97347.98;;;5.36;69.23
34205;BME280;20471;49.680;20.074;2023-05-12T04:54:23;97346.73;;;5.46;69.21
34205;BME280;20471;49.680;20.074;2023-05-12T04:56:51;97346.89;;;5.55;69.40
34205;BME280;20471;49.680;20.074;2023-05-12T04:59:19;97346.94;;;5.65;69.58
34205;BME280;20471;49.680;20.074;2023-05-12T05:01:48;97349.65;;;5.75;69.54
34205;BME280;20471;49.680;20.074;2023-05-12T05:04:16;97352.00;;;5.85;69.56
34205;BME280;20471;49.680;20.074;2023-05-12T05:06:44;97349.55;;;5.97;69.41
34205;BME280;20471;49.680;20.074;2023-05-12T05:09:12;97345.52;;;6.08;69.47
34205;BME280;20471;49.680;20.074;2023-05-12T05:11:40;97343.34;;;6.20;69.34
34205;BME280;20471;49.680;20.074;2023-05-12T05:14:08;97347.86;;;6.31;69.37
34205;BME280;20471;49.680;20.074;2023-05-12T05:16:36;97351.48;;;6.43;69.44
34205;BME280;20471;49.680;20.074;2023-05-12T05:19:04;97349.14;;;6.54;69.57
34205;BME280;20471;49.680;20.074;2023-05-12T05:21:33;97351.45;;;6.67;69.30
34205;BME280;20471;49.680;20.074;2023-05-12T05:24:01;97347.27;;;6.81;68.99
34205;BME280;20471;49.680;20.074;2023-05-12T05:26:29;97348.34;;;6.94;69.12
34205;BME280;20471;49.680;20.074;2023-05-12T05:28:57;97347.03;;;7.08;69.17
34205;BME280;20471;49.680;20.074;2023-05-12T05:31:26;97350.95;;;7.23;69.35
34205;BME280;20471;49.680;20.074;2023-05-12T05:33:54;97352.61;;;7.38;69.18
34205;BME280;20471;49.680;20.074;2023-05-12T05:36:22;97350.41;;;7.54;69.08
34205;BME280;20471;49.680;20.074;2023-05-12T05:38:51;97348.31;;;7.71;69.04
34205;BME280;20471;49.680;20.074;2023-05-12T05:41:20;97345.66;;;7.87;69.15
34205;BME280;20471;49.680;20.074;2023-05-12T05:43:48;97346.46;;;8.06;69.30
34205;BME280;20471;49.680;20.074;2023-05-12T05:46:16;97344.27;;;8.26;69.20
34205;BME280;20471;49.680;20.074;2023-05-12T05:48:45;97344.59;;;8.44;68.83
34205;BME280;20471;49.680;20.074;2023-05-12T05:51:13;97343.77;;;8.63;68.58
34205;BME280;20471;49.680;20.074;2023-05-12T05:53:41;97340.85;;;8.87;68.23
34205;BME280;20471;49.680;20.074;2023-05-12T05:56:09;97342.05;;;9.19;67.78
34205;BME280;20471;49.680;20.074;2023-05-12T05:58:37;97345.20;;;9.58;67.41
34205;BME280;20471;49.680;20.074;2023-05-12T06:01:06;97346.58;;;9.95;66.54
34205;BME280;20471;49.680;20.074;2023-05-12T06:03:34;97340.13;;;10.25;66.09
34205;BME280;20471;49.680;20.074;2023-05-12T06:06:02;97345.88;;;10.53;65.31
34205;BME280;20471;49.680;20.074;2023-05-12T06:08:30;97345.68;;;10.82;64.48
34205;BME280;20471;49.680;20.074;2023-05-12T06:10:58;97346.12;;;11.12;63.94
34205;BME280;20471;49.680;20.074;2023-05-12T06:13:26;97344.95;;;11.42;63.41
34205;BME280;20471;49.680;20.074;2023-05-12T06:15:55;97345.60;;;11.67;62.93
34205;BME280;20471;49.680;20.074;2023-05-12T06:18:23;97340.16;;;11.90;62.31
34205;BME280;20471;49.680;20.074;2023-05-12T06:20:51;97342.43;;;12.14;61.58
34205;BME280;20471;49.680;20.074;2023-05-12T06:23:19;97336.44;;;12.35;60.88
34205;BME280;20471;49.680;20.074;2023-05-12T06:25:48;97343.05;;;12.55;60.14
34205;BME280;20471;49.680;20.074;2023-05-12T06:28:16;97346.40;;;12.77;59.69
34205;BME280;20471;49.680;20.074;2023-05-12T06:30:44;97347.49;;;12.96;59.19
34205;BME280;20471;49.680;20.074;2023-05-12T06:33:12;97347.09;;;13.16;58.49
34205;BME280;20471;49.680;20.074;2023-05-12T06:35:40;97348.77;;;13.37;57.95
34205;BME280;20471;49.680;20.074;2023-05-12T06:38:09;97348.59;;;13.57;57.22
34205;BME280;20471;49.680;20.074;2023-05-12T06:40:37;97350.79;;;13.77;56.39
34205;BME280;20471;49.680;20.074;2023-05-12T06:43:05;97350.84;;;13.94;55.83
34205;BME280;20471;49.680;20.074;2023-05-12T06:45:33;97350.36;;;14.11;55.26
34205;BME280;20471;49.680;20.074;2023-05-12T06:48:02;97351.58;;;14.25;54.58
34205;BME280;20471;49.680;20.074;2023-05-12T06:50:31;97352.55;;;14.38;53.89
34205;BME280;20471;49.680;20.074;2023-05-12T06:52:59;97351.76;;;14.51;53.68
34205;BME280;20471;49.680;20.074;2023-05-12T06:55:27;97350.61;;;14.65;53.60
34205;BME280;20471;49.680;20.074;2023-05-12T06:57:55;97356.24;;;14.79;53.08
34205;BME280;20471;49.680;20.074;2023-05-12T07:00:24;97357.46;;;14.91;52.57
34205;BME280;20471;49.680;20.074;2023-05-12T07:02:52;97359.14;;;15.03;51.85
34205;BME280;20471;49.680;20.074;2023-05-12T07:05:21;97364.45;;;15.15;51.64
34205;BME280;20471;49.680;20.074;2023-05-12T07:07:49;97364.67;;;15.28;51.40
34205;BME280;20471;49.680;20.074;2023-05-12T07:10:18;97361.42;;;15.41;50.87
34205;BME280;20471;49.680;20.074;2023-05-12T07:12:46;97360.75;;;15.51;50.57
34205;BME280;20471;49.680;20.074;2023-05-12T07:15:14;97366.01;;;15.64;50.65
34205;BME280;20471;49.680;20.074;2023-05-12T07:17:43;97367.93;;;15.76;49.82
34205;BME280;20471;49.680;20.074;2023-05-12T07:20:11;97368.39;;;15.87;49.14
34205;BME280;20471;49.680;20.074;2023-05-12T07:22:39;97369.41;;;15.96;49.08
34205;BME280;20471;49.680;20.074;2023-05-12T07:25:07;97373.63;;;16.07;48.86
34205;BME280;20471;49.680;20.074;2023-05-12T07:27:36;97371.84;;;16.17;48.08
34205;BME280;20471;49.680;20.074;2023-05-12T07:30:06;97372.90;;;16.26;47.95
34205;BME280;20471;49.680;20.074;2023-05-12T07:32:34;97364.58;;;16.41;47.96
34205;BME280;20471;49.680;20.074;2023-05-12T07:35:02;97365.15;;;16.64;47.47
34205;BME280;20471;49.680;20.074;2023-05-12T07:37:31;97364.78;;;16.91;46.85
34205;BME280;20471;49.680;20.074;2023-05-12T07:39:59;97364.02;;;17.26;46.95
34205;BME280;20471;49.680;20.074;2023-05-12T07:42:27;97366.77;;;17.62;46.82
34205;BME280;20471;49.680;20.074;2023-05-12T07:44:55;97368.27;;;17.95;46.26
34205;BME280;20471;49.680;20.074;2023-05-12T07:47:24;97368.83;;;18.28;45.39
34205;BME280;20471;49.680;20.074;2023-05-12T07:49:54;97369.63;;;18.68;44.90
34205;BME280;20471;49.680;20.074;2023-05-12T07:52:22;97366.59;;;19.00;43.81
34205;BME280;20471;49.680;20.074;2023-05-12T07:54:50;97365.30;;;19.30;43.76
34205;BME280;20471;49.680;20.074;2023-05-12T07:57:18;97366.42;;;19.68;43.08
34205;BME280;20471;49.680;20.074;2023-05-12T07:59:46;97367.09;;;20.07;42.14
34205;BME280;20471;49.680;20.074;2023-05-12T08:02:15;97367.17;;;20.45;41.96
34205;BME280;20471;49.680;20.074;2023-05-12T08:04:43;97365.80;;;20.81;40.72
34205;BME280;20471;49.680;20.074;2023-05-12T08:07:11;97364.25;;;21.08;39.91
34205;BME280;20471;49.680;20.074;2023-05-12T08:09:39;97366.63;;;21.39;39.60
34205;BME280;20471;49.680;20.074;2023-05-12T08:12:07;97368.66;;;21.72;39.00
34205;BME280;20471;49.680;20.074;2023-05-12T08:14:36;97367.88;;;22.03;38.52
34205;BME280;20471;49.680;20.074;2023-05-12T08:17:04;97370.19;;;22.26;37.40
34205;BME280;20471;49.680;20.074;2023-05-12T08:19:32;97373.23;;;22.49;36.92
34205;BME280;20471;49.680;20.074;2023-05-12T08:22:00;97371.64;;;22.80;36.44
34205;BME280;20471;49.680;20.074;2023-05-12T08:24:29;97367.81;;;23.05;35.44
34205;BME280;20471;49.680;20.074;2023-05-12T08:26:57;97367.23;;;23.35;35.12
34205;BME280;20471;49.680;20.074;2023-05-12T08:29:25;97361.66;;;23.68;35.11
34205;BME280;20471;49.680;20.074;2023-05-12T08:31:53;97366.92;;;24.05;34.10
34205;BME280;20471;49.680;20.074;2023-05-12T08:34:23;97370.48;;;24.26;33.55
34205;BME280;20471;49.680;20.074;2023-05-12T08:36:51;97374.64;;;24.55;33.21
34205;BME280;20471;49.680;20.074;2023-05-12T08:39:20;97368.52;;;24.64;32.04
34205;BME280;20471;49.680;20.074;2023-05-12T08:44:28;97364.34;;;24.01;31.01
34205;BME280;20471;49.680;20.074;2023-05-12T08:46:57;97363.16;;;24.13;31.41
34205;BME280;20471;49.680;20.074;2023-05-12T08:49:28;97363.55;;;24.45;31.24
34205;BME280;20471;49.680;20.074;2023-05-12T08:52:00;97359.02;;;24.24;31.03
34205;BME280;20471;49.680;20.074;2023-05-12T08:54:29;97358.77;;;23.89;30.89
34205;BME280;20471;49.680;20.074;2023-05-12T08:56:57;97361.55;;;23.50;30.76
34205;BME280;20471;49.680;20.074;2023-05-12T08:59:26;97364.04;;;23.26;30.80
34205;BME280;20471;49.680;20.074;2023-05-12T09:01:55;97354.17;;;23.59;30.79
34205;BME280;20471;49.680;20.074;2023-05-12T09:04:23;97364.09;;;24.10;30.81
34205;BME280;20471;49.680;20.074;2023-05-12T09:06:52;97366.13;;;24.62;30.64
34205;BME280;20471;49.680;20.074;2023-05-12T09:09:20;97362.89;;;25.04;29.81
34205;BME280;20471;49.680;20.074;2023-05-12T09:11:50;97362.73;;;25.40;29.18
34205;BME280;20471;49.680;20.074;2023-05-12T09:14:24;97362.63;;;25.48;28.54
34205;BME280;20471;49.680;20.074;2023-05-12T09:16:57;97365.54;;;25.43;28.54
34205;BME280;20471;49.680;20.074;2023-05-12T09:19:26;97365.61;;;25.56;27.86
34205;BME280;20471;49.680;20.074;2023-05-12T09:21:55;97367.86;;;25.49;28.04
34205;BME280;20471;49.680;20.074;2023-05-12T09:24:37;97364.54;;;25.63;28.41
34205;BME280;20471;49.680;20.074;2023-05-12T09:27:06;97363.41;;;25.67;28.43
34205;BME280;20471;49.680;20.074;2023-05-12T09:29:34;97367.27;;;25.53;28.10
34205;BME280;20471;49.680;20.074;2023-05-12T09:32:03;97364.03;;;25.11;28.16
34205;BME280;20471;49.680;20.074;2023-05-12T09:34:34;97374.35;;;24.68;27.93
34205;BME280;20471;49.680;20.074;2023-05-12T09:37:05;97375.85;;;24.32;28.39
34205;BME280;20471;49.680;20.074;2023-05-12T09:39:34;97371.50;;;24.16;28.33
34205;BME280;20471;49.680;20.074;2023-05-12T09:42:03;97370.77;;;23.98;28.46
34205;BME280;20471;49.680;20.074;2023-05-12T09:44:31;97366.53;;;24.20;28.91
34205;BME280;20471;49.680;20.074;2023-05-12T09:47:06;97366.42;;;24.45;28.78
34205;BME280;20471;49.680;20.074;2023-05-12T09:49:35;97365.83;;;24.50;28.25
34205;BME280;20471;49.680;20.074;2023-05-12T09:52:04;97364.48;;;24.35;27.96
34205;BME280;20471;49.680;20.074;2023-05-12T09:54:32;97365.89;;;24.03;27.82
34205;BME280;20471;49.680;20.074;2023-05-12T09:57:02;97363.89;;;23.97;28.28
34205;BME280;20471;49.680;20.074;2023-05-12T09:59:35;97360.65;;;24.15;28.23
34205;BME280;20471;49.680;20.074;2023-05-12T10:02:05;97357.27;;;24.48;28.06
34205;BME280;20471;49.680;20.074;2023-05-12T10:04:48;97359.83;;;24.71;27.44
34205;BME280;20471;49.680;20.074;2023-05-12T10:07:21;97358.56;;;24.87;27.20
34205;BME280;20471;49.680;20.074;2023-05-12T10:09:49;97364.61;;;24.73;26.98
34205;BME280;20471;49.680;20.074;2023-05-12T10:12:18;97366.10;;;24.57;26.48
34205;BME280;20471;49.680;20.074;2023-05-12T10:14:47;97365.63;;;24.35;26.41
34205;BME280;20471;49.680;20.074;2023-05-12T10:17:18;97362.66;;;24.13;26.53
34205;BME280;20471;49.680;20.074;2023-05-12T10:19:48;97362.10;;;24.18;26.82
34205;BME280;20471;49.680;20.074;2023-05-12T10:22:18;97360.35;;;24.21;26.65
34205;BME280;20471;49.680;20.074;2023-05-12T10:24:47;97365.30;;;24.14;26.99
34205;BME280;20471;49.680;20.074;2023-05-12T10:27:16;97365.73;;;24.07;26.96
34205;BME280;20471;49.680;20.074;2023-05-12T10:29:45;97364.88;;;23.87;27.57
34205;BME280;20471;49.680;20.074;2023-05-12T10:32:14;97360.84;;;23.63;27.02
34205;BME280;20471;49.680;20.074;2023-05-12T10:34:42;97356.71;;;23.45;27.52
34205;BME280;20471;49.680;20.074;2023-05-12T10:37:11;97357.45;;;23.47;27.53
34205;BME280;20471;49.680;20.074;2023-05-12T10:39:47;97352.62;;;23.28;27.20
34205;BME280;20471;49.680;20.074;2023-05-12T10:42:20;97353.86;;;23.13;27.73
34205;BME280;20471;49.680;20.074;2023-05-12T10:44:55;97350.73;;;23.16;27.87
34205;BME280;20471;49.680;20.074;2023-05-12T10:47:24;97350.90;;;23.02;27.80
34205;BME280;20471;49.680;20.074;2023-05-12T10:49:56;97350.40;;;22.74;27.16
34205;BME280;20471;49.680;20.074;2023-05-12T10:52:25;97347.52;;;22.63;28.25
34205;BME280;20471;49.680;20.074;2023-05-12T10:55:01;97343.90;;;22.86;28.50
34205;BME280;20471;49.680;20.074;2023-05-12T10:57:31;97349.77;;;22.89;28.03
34205;BME280;20471;49.680;20.074;2023-05-12T10:59:59;97351.66;;;22.80;28.06
34205;BME280;20471;49.680;20.074;2023-05-12T11:02:29;97352.06;;;22.60;27.97
34205;BME280;20471;49.680;20.074;2023-05-12T11:05:01;97354.30;;;22.45;28.34
34205;BME280;20471;49.680;20.074;2023-05-12T11:07:32;97354.54;;;22.61;28.17
34205;BME280;20471;49.680;20.074;2023-05-12T11:10:02;97355.39;;;22.83;28.16
34205;BME280;20471;49.680;20.074;2023-05-12T11:12:32;97355.11;;;22.65;27.90
34205;BME280;20471;49.680;20.074;2023-05-12T11:15:01;97355.02;;;22.39;28.22
34205;BME280;20471;49.680;20.074;2023-05-12T11:17:30;97358.59;;;22.25;28.66
34205;BME280;20471;49.680;20.074;2023-05-12T11:19:58;97364.52;;;22.19;28.70
34205;BME280;20471;49.680;20.074;2023-05-12T11:22:27;97357.75;;;22.06;28.19
34205;BME280;20471;49.680;20.074;2023-05-12T11:24:55;97351.95;;;22.09;28.38
34205;BME280;20471;49.680;20.074;2023-05-12T11:27:23;97352.20;;;22.39;29.18
34205;BME280;20471;49.680;20.074;2023-05-12T11:29:59;97350.61;;;22.56;28.57
34205;BME280;20471;49.680;20.074;2023-05-12T11:32:28;97354.88;;;22.54;27.97
34205;BME280;20471;49.680;20.074;2023-05-12T11:35:14;97347.63;;;22.46;28.07
34205;BME280;20471;49.680;20.074;2023-05-12T11:37:43;97351.42;;;22.33;28.09
34205;BME280;20471;49.680;20.074;2023-05-12T11:40:16;97357.51;;;22.16;28.21
34205;BME280;20471;49.680;20.074;2023-05-12T11:42:45;97357.77;;;22.05;28.24
34205;BME280;20471;49.680;20.074;2023-05-12T11:45:26;97355.45;;;21.92;28.35
34205;BME280;20471;49.680;20.074;2023-05-12T11:48:09;97353.14;;;21.77;28.22
34205;BME280;20471;49.680;20.074;2023-05-12T11:50:39;97353.08;;;21.60;28.29
34205;BME280;20471;49.680;20.074;2023-05-12T11:53:12;97351.52;;;21.51;28.47
34205;BME280;20471;49.680;20.074;2023-05-12T11:58:21;97351.72;;;21.36;27.84
34205;BME280;20471;49.680;20.074;2023-05-12T12:00:52;97353.16;;;21.31;28.13
34205;BME280;20471;49.680;20.074;2023-05-12T12:03:22;97350.61;;;21.20;28.30
34205;BME280;20471;49.680;20.074;2023-05-12T12:06:01;97350.05;;;21.14;28.23
34205;BME280;20471;49.680;20.074;2023-05-12T12:08:32;97344.58;;;21.21;28.57
34205;BME280;20471;49.680;20.074;2023-05-12T12:11:04;97340.77;;;21.47;29.19
34205;BME280;20471;49.680;20.074;2023-05-12T12:13:33;97339.53;;;21.73;28.81
34205;BME280;20471;49.680;20.074;2023-05-12T12:16:01;97339.11;;;21.72;27.96
34205;BME280;20471;49.680;20.074;2023-05-12T12:18:29;97336.33;;;21.65;28.39
34205;BME280;20471;49.680;20.074;2023-05-12T12:20:58;97348.73;;;21.59;28.34
34205;BME280;20471;49.680;20.074;2023-05-12T12:23:26;97352.53;;;21.47;28.31
34205;BME280;20471;49.680;20.074;2023-05-12T12:25:54;97346.69;;;21.29;28.25
34205;BME280;20471;49.680;20.074;2023-05-12T12:28:22;97347.39;;;21.11;28.26
34205;BME280;20471;49.680;20.074;2023-05-12T12:30:50;97349.91;;;20.96;28.59
34205;BME280;20471;49.680;20.074;2023-05-12T12:33:18;97346.73;;;20.96;29.27
34205;BME280;20471;49.680;20.074;2023-05-12T12:35:46;97348.82;;;21.17;29.26
34205;BME280;20471;49.680;20.074;2023-05-12T12:38:15;97347.00;;;21.19;28.61
34205;BME280;20471;49.680;20.074;2023-05-12T12:40:43;97353.89;;;21.03;28.53
34205;BME280;20471;49.680;20.074;2023-05-12T12:43:11;97356.03;;;20.86;28.47
34205;BME280;20471;49.680;20.074;2023-05-12T12:45:39;97360.47;;;20.65;28.76
34205;BME280;20471;49.680;20.074;2023-05-12T12:48:08;97364.11;;;20.51;29.09
34205;BME280;20471;49.680;20.074;2023-05-12T12:50:36;97361.88;;;20.41;29.34
34205;BME280;20471;49.680;20.074;2023-05-12T12:53:05;97364.01;;;20.36;29.69
34205;BME280;20471;49.680;20.074;2023-05-12T12:55:33;97361.93;;;20.36;30.03
34205;BME280;20471;49.680;20.074;2023-05-12T12:58:01;97357.30;;;20.35;30.12
34205;BME280;20471;49.680;20.074;2023-05-12T13:00:29;97357.94;;;20.30;29.82
34205;BME280;20471;49.680;20.074;2023-05-12T13:02:58;97350.66;;;20.28;30.00
34205;BME280;20471;49.680;20.074;2023-05-12T13:05:26;97345.90;;;20.42;30.38
34205;BME280;20471;49.680;20.074;2023-05-12T13:07:54;97340.80;;;20.70;30.44
34205;BME280;20471;49.680;20.074;2023-05-12T13:10:23;97341.30;;;20.92;30.65